Time;durP1;ratioP1;P1;durP2;ratioP2;P2;SDS_P1;SDS_P2;PMS_P1;PMS_P2;Temp;Humidity;BMP_temperature;BMP_pressure;BME280_temperature;BME280_humidity;BME280_pressure;Samples;Min_cycle;Max_cycle;Signal;HPM_P1;HPM_P2
2021/01/20 00:03:56;;;;;;;4.28;2.45;;;;;;;6.66;82.19;99321.83;2774477;85;21175;-67
2021/01/20 00:08:00;;;;;;;2.30;2.02;;;;;;;6.69;82.76;99320.28;2810843;84;21161;-67
2021/01/20 00:12:05;;;;;;;5.65;2.62;;;;;;;6.74;82.91;99318.56;2774545;85;21203;-67
2021/01/20 00:16:07;;;;;;;2.72;1.20;;;;;;;6.81;82.86;99313.63;2810269;83;21201;-66
2021/01/20 00:20:12;;;;;;;6.28;1.75;;;;;;;6.85;82.43;99311.08;2774441;85;21136;-67
2021/01/20 00:24:16;;;;;;;2.75;1.57;;;;;;;6.86;82.07;99306.15;2774712;84;21175;-67
2021/01/20 00:28:20;;;;;;;2.87;2.12;;;;;;;6.86;82.07;99306.15;2810566;84;21589;-65
2021/01/20 00:32:23;;;;;;;2.45;2.25;;;;;;;6.88;82.01;99313.50;2810874;84;21172;-67
2021/01/20 00:36:27;;;;;;;5.30;2.75;;;;;;;6.86;81.84;99312.28;2774592;85;21150;-66
2021/01/20 00:40:30;;;;;;;3.62;3.15;;;;;;;6.88;81.96;99316.14;2774660;85;21140;-66
2021/01/20 00:44:33;;;;;;;3.47;2.37;;;;;;;6.85;82.06;99316.37;2810551;83;21659;-65
2021/01/20 00:48:37;;;;;;;3.35;2.25;;;;;;;6.86;82.19;99313.61;2810613;84;21133;-68
2021/01/20 00:52:40;;;;;;;3.37;1.85;;;;;;;6.93;82.13;99323.67;2774519;84;21195;-65
2021/01/20 00:56:43;;;;;;;6.12;2.47;;;;;;;6.90;82.05;99320.81;2774635;85;21183;-65
2021/01/20 01:00:46;;;;;;;3.17;2.40;;;;;;;6.92;82.19;99320.67;2810532;84;21141;-68
2021/01/20 01:04:50;;;;;;;2.30;2.08;;;;;;;6.90;81.98;99327.89;2810342;84;21153;-66
2021/01/20 01:08:53;;;;;;;2.95;2.65;;;;;;;6.91;82.07;99328.25;2774611;84;21152;-67
2021/01/20 01:12:57;;;;;;;3.17;1.92;;;;;;;6.94;82.11;99326.20;2774336;85;21608;-67
2021/01/20 01:17:01;;;;;;;4.15;3.30;;;;;;;6.97;82.03;99330.37;2810295;84;21160;-68
2021/01/20 01:21:04;;;;;;;3.27;2.33;;;;;;;6.98;82.07;99328.13;2774532;85;21139;-68
2021/01/20 01:25:08;;;;;;;5.20;3.00;;;;;;;7.00;82.22;99326.19;2774458;85;21188;-66
2021/01/20 01:29:11;;;;;;;3.10;2.62;;;;;;;7.04;82.06;99321.46;2810352;84;21181;-68
2021/01/20 01:33:14;;;;;;;5.60;3.10;;;;;;;7.05;82.19;99326.64;2774526;85;21147;-68
2021/01/20 01:37:17;;;;;;;3.45;2.58;;;;;;;7.08;82.32;99325.06;2774478;85;21139;-68
2021/01/20 01:41:22;;;;;;;2.70;2.50;;;;;;;7.09;82.30;99321.95;2810921;84;21193;-66
2021/01/20 01:45:27;;;;;;;;;;;;;;;7.08;82.51;99318.95;2775884;84;21159;-68
2021/01/20 01:49:31;;;;;;;6.30;3.75;;;;;;;7.10;82.04;99324.45;2726806;86;20218;-69
2021/01/20 01:53:34;;;;;;;3.87;3.10;;;;;;;7.06;81.87;99320.85;2776795;83;22239;-68
2021/01/20 01:57:42;;;;;;;3.95;3.10;;;;;;;7.05;81.84;99319.17;2783455;85;21167;-68
2021/01/20 02:01:46;;;;;;;3.12;2.70;;;;;;;7.04;81.76;99319.67;2736651;85;21182;-69
2021/01/20 02:05:49;;;;;;;3.27;2.58;;;;;;;7.06;81.83;99319.53;2827585;84;21562;-68
2021/01/20 02:09:53;;;;;;;3.80;1.75;;;;;;;7.10;81.52;99328.91;2783478;85;21179;-69
2021/01/20 02:14:13;;;;;;;3.70;2.30;;;;;;;7.12;81.48;99327.80;2810113;82;21136;-68
2021/01/20 02:18:23;;;;;;;2.95;2.33;;;;;;;7.15;81.30;99332.83;2906093;81;21170;-68
2021/01/20 02:22:39;;;;;;;4.92;2.92;;;;;;;7.18;81.14;99335.72;2877321;81;21947;-68
2021/01/20 02:27:08;;;;;;;5.67;2.62;;;;;;;7.23;81.08;99344.59;2877678;81;21151;-67
2021/01/20 02:31:14;;;;;;;2.45;2.10;;;;;;;7.24;80.79;99348.92;2877642;82;21135;-69
2021/01/20 02:35:18;;;;;;;2.33;2.13;;;;;;;7.25;80.59;99350.09;2885949;81;21147;-67
2021/01/20 02:39:22;;;;;;;4.05;1.98;;;;;;;7.25;80.53;99358.53;2885942;81;21593;-68
2021/01/20 02:43:26;;;;;;;2.12;1.92;;;;;;;7.26;80.50;99358.89;2885994;81;21590;-67
2021/01/20 02:47:29;;;;;;;2.87;2.47;;;;;;;7.26;80.17;99358.39;2885938;81;21135;-68
2021/01/20 02:51:54;;;;;;;2.20;2.00;;;;;;;7.23;79.69;99352.03;2779510;84;21621;-67
2021/01/20 02:56:00;;;;;;;2.65;2.37;;;;;;;7.17;79.35;99357.84;2792302;84;21152;-69
2021/01/20 03:00:06;;;;;;;2.10;1.55;;;;;;;7.07;78.93;99355.58;2794798;85;21138;-69
2021/01/20 03:04:10;;;;;;;3.62;2.62;;;;;;;6.99;79.13;99370.78;2794655;85;21201;-66
2021/01/20 03:08:14;;;;;;;4.03;2.55;;;;;;;6.90;78.82;99372.84;2794842;85;21189;-67
2021/01/20 03:12:17;;;;;;;2.10;1.75;;;;;;;6.79;78.74;99369.75;2794464;85;21133;-68
2021/01/20 03:16:29;;;;;;;4.25;2.10;;;;;;;6.75;79.54;99373.11;2794470;85;21595;-66
2021/01/20 03:20:34;;;;;;;2.65;2.42;;;;;;;6.77;79.75;99363.25;2794666;85;21493;-67
2021/01/20 03:24:37;;;;;;;1.82;1.22;;;;;;;6.76;79.68;99356.78;2794823;85;21201;-69
2021/01/20 03:28:42;;;;;;;1.85;1.70;;;;;;;6.73;79.52;99363.14;2794664;85;21169;-68
2021/01/20 03:32:45;;;;;;;2.12;1.40;;;;;;;6.75;79.57;99364.36;2794279;85;21185;-68
2021/01/20 03:36:48;;;;;;;2.33;2.08;;;;;;;6.69;78.97;99366.53;2794070;83;21575;-68
2021/01/20 03:40:53;;;;;;;3.98;2.58;;;;;;;6.64;79.09;99377.94;2794620;85;21161;-68
2021/01/20 03:44:55;;;;;;;5.12;3.70;;;;;;;6.66;79.12;99370.72;2794412;85;21604;-67
2021/01/20 03:48:58;;;;;;;2.47;2.22;;;;;;;6.75;79.75;99378.39;2794300;84;21161;-67
2021/01/20 03:53:01;;;;;;;3.20;2.00;;;;;;;6.69;78.37;99386.36;2794727;85;21186;-68
2021/01/20 03:57:05;;;;;;;4.17;2.60;;;;;;;6.64;79.20;99380.58;2828686;84;21657;-67
2021/01/20 04:01:08;;;;;;;4.50;3.10;;;;;;;6.53;78.72;99389.36;2858833;82;21159;-69
2021/01/20 04:05:17;;;;;;;4.62;3.62;;;;;;;6.36;79.06;99391.17;2788697;85;21175;-69
2021/01/20 04:09:28;;;;;;;3.15;2.85;;;;;;;6.19;79.37;99381.48;2788788;85;21175;-68
2021/01/20 04:13:40;;;;;;;4.40;3.15;;;;;;;6.21;79.21;99382.20;2788356;85;21592;-69
2021/01/20 04:17:47;;;;;;;4.83;4.08;;;;;;;6.14;79.51;99379.19;2788468;85;21210;-68
2021/01/20 04:22:00;;;;;;;4.00;3.60;;;;;;;6.11;79.82;99379.44;2788603;85;21174;-68
2021/01/20 04:26:09;;;;;;;;;;;;;;;6.09;79.37;99383.14;2790841;84;21199;-70
2021/01/20 04:30:37;;;;;;;5.62;3.35;;;;;;;6.10;79.73;99378.22;2820597;83;20195;-69
2021/01/20 04:34:41;;;;;;;5.83;4.53;;;;;;;5.90;80.09;99373.15;2823890;83;21618;-68
2021/01/20 04:38:46;;;;;;;6.90;5.40;;;;;;;5.72;80.42;99363.04;2829678;83;21164;-69
2021/01/20 04:42:50;;;;;;;6.62;4.78;;;;;;;5.54;80.43;99367.91;2829374;83;21646;-68
2021/01/20 04:46:56;;;;;;;10.43;6.92;;;;;;;5.37;80.40;99370.01;2856257;82;21153;-69
2021/01/20 04:51:07;;;;;;;12.10;5.63;;;;;;;5.18;81.04;99362.64;2878481;81;21172;-68
2021/01/20 04:55:11;;;;;;;5.42;4.42;;;;;;;5.14;81.94;99359.88;2878373;82;21140;-68
2021/01/20 04:59:14;;;;;;;5.90;4.90;;;;;;;5.19;82.24;99345.02;2878497;81;21184;-69
2021/01/20 05:03:17;;;;;;;7.70;4.53;;;;;;;5.20;82.31;99346.23;2878054;82;21184;-67
2021/01/20 05:07:21;;;;;;;3.98;3.33;;;;;;;5.34;82.39;99351.78;2878480;82;21623;-67
2021/01/20 05:11:44;;;;;;;3.98;3.42;;;;;;;5.46;82.25;99338.14;2878008;82;21133;-68
2021/01/20 05:15:47;;;;;;;5.05;3.95;;;;;;;5.61;82.02;99347.17;2878068;82;21153;-65
2021/01/20 05:19:50;;;;;;;3.72;3.42;;;;;;;5.72;81.71;99356.45;2878670;82;21152;-64
2021/01/20 05:23:53;;;;;;;6.28;3.27;;;;;;;5.81;81.41;99357.05;2878645;81;21136;-66
2021/01/20 05:27:57;;;;;;;5.42;3.33;;;;;;;5.86;81.11;99353.56;2905612;80;21112;-66
2021/01/20 05:32:19;;;;;;;7.08;4.35;;;;;;;5.82;80.84;99346.84;2965016;80;21136;-65
2021/01/20 05:36:22;;;;;;;5.35;4.10;;;;;;;5.75;80.79;99360.63;2965274;80;21152;-66
2021/01/20 05:40:25;;;;;;;4.47;4.08;;;;;;;5.66;80.88;99355.11;2926320;80;21116;-65
2021/01/20 05:44:29;;;;;;;6.97;5.15;;;;;;;5.59;81.13;99351.23;2923760;80;21544;-65
2021/01/20 05:48:32;;;;;;;5.25;4.75;;;;;;;5.58;81.60;99354.37;2910308;80;21149;-66
2021/01/20 05:52:35;;;;;;;6.40;5.50;;;;;;;5.71;81.70;99354.77;2894435;81;21149;-65
2021/01/20 05:56:39;;;;;;;7.85;6.67;;;;;;;5.83;81.53;99359.08;2894658;81;21149;-65
2021/01/20 06:00:42;;;;;;;7.33;4.55;;;;;;;5.93;81.00;99347.83;2907395;80;21625;-69
2021/01/20 06:04:45;;;;;;;6.33;4.90;;;;;;;6.02;80.84;99337.89;2964647;80;21124;-67
2021/01/20 06:08:49;;;;;;;5.62;4.53;;;;;;;6.07;80.47;99333.58;2964687;80;21152;-67
2021/01/20 06:12:53;;;;;;;7.90;5.15;;;;;;;6.07;80.08;99335.72;2964938;80;21156;-68
2021/01/20 06:17:18;;;;;;;11.63;7.08;;;;;;;6.03;80.03;99334.78;2964683;80;21141;-70
2021/01/20 06:21:25;;;;;;;4.62;4.20;;;;;;;6.01;80.11;99334.89;2949840;80;21168;-68
2021/01/20 06:25:33;;;;;;;11.15;5.42;;;;;;;6.03;80.13;99334.78;2947469;80;21169;-70
2021/01/20 06:29:44;;;;;;;12.95;7.58;;;;;;;6.08;80.04;99338.72;2946524;80;29755;-74
2021/01/20 06:33:47;;;;;;;8.30;6.05;;;;;;;6.14;79.74;99332.13;2946807;80;21109;-74
2021/01/20 06:37:51;;;;;;;8.00;6.08;;;;;;;6.17;79.56;99340.30;2947088;80;21595;-74
2021/01/20 06:41:57;;;;;;;10.72;5.67;;;;;;;6.14;79.38;99328.16;2947309;80;21177;-74
2021/01/20 06:46:21;;;;;;;8.37;5.83;;;;;;;6.19;79.27;99329.13;2947223;80;21573;-74
2021/01/20 06:50:34;;;;;;;9.05;5.97;;;;;;;6.22;79.23;99328.88;2947298;80;21148;-74
2021/01/20 06:54:41;;;;;;;11.12;7.47;;;;;;;6.25;79.03;99329.95;2947015;80;21152;-74
2021/01/20 06:58:50;;;;;;;11.20;7.47;;;;;;;6.25;78.79;99325.98;2947575;80;21165;-74
2021/01/20 07:03:06;;;;;;;10.63;7.62;;;;;;;6.28;78.77;99323.95;2940255;80;21152;-74
2021/01/20 07:07:11;;;;;;;9.03;7.28;;;;;;;6.31;78.65;99328.63;2947019;80;21141;-74
2021/01/20 07:11:15;;;;;;;16.12;8.30;;;;;;;6.34;78.39;99328.39;2946906;80;21136;-73
2021/01/20 07:15:19;;;;;;;16.45;8.15;;;;;;;6.40;78.32;99327.92;2946629;80;21176;-74
2021/01/20 07:19:23;;;;;;;15.25;13.72;;;;;;;6.46;78.01;99319.95;2947179;80;21131;-74
2021/01/20 07:23:26;;;;;;;15.38;8.45;;;;;;;6.51;77.97;99329.20;2894808;82;21129;-74
2021/01/20 07:27:29;;;;;;;17.98;14.07;;;;;;;6.56;77.76;99322.23;2835464;82;21167;-74
2021/01/20 07:31:32;;;;;;;9.70;5.47;;;;;;;6.67;77.92;99329.30;2864029;81;21146;-74
2021/01/20 07:35:35;;;;;;;10.15;7.10;;;;;;;6.72;77.37;99315.22;2864168;83;21155;-75
2021/01/20 07:39:40;;;;;;;14.73;10.05;;;;;;;6.77;77.14;99313.52;2864080;83;21492;-74
2021/01/20 07:43:43;;;;;;;11.12;8.28;;;;;;;6.83;77.16;99314.34;2863965;82;21193;-74
2021/01/20 07:47:48;;;;;;;11.25;7.33;;;;;;;6.86;76.64;99312.75;2864089;82;21160;-74
2021/01/20 07:52:10;;;;;;;12.03;7.37;;;;;;;6.88;76.52;99314.82;2864234;83;21139;-73
2021/01/20 07:56:13;;;;;;;12.63;8.18;;;;;;;6.90;76.42;99316.00;2864154;82;21166;-73
2021/01/20 08:00:17;;;;;;;13.85;8.85;;;;;;;6.93;76.48;99315.27;2864126;83;21613;-73
2021/01/20 08:04:27;;;;;;;12.33;8.88;;;;;;;6.99;76.19;99321.37;2864279;83;21182;-73
2021/01/20 08:08:30;;;;;;;18.77;13.00;;;;;;;7.07;76.17;99316.77;2864162;83;21138;-73
2021/01/20 08:12:34;;;;;;;12.00;6.92;;;;;;;7.11;75.87;99312.08;2864172;83;22031;-73
2021/01/20 08:16:39;;;;;;;7.78;6.97;;;;;;;7.10;75.63;99315.69;2864013;83;21167;-74
2021/01/20 08:20:43;;;;;;;11.25;7.80;;;;;;;7.09;75.47;99308.72;2864030;83;21594;-73
2021/01/20 08:24:50;;;;;;;10.15;6.50;;;;;;;7.14;75.65;99311.81;2863717;83;21181;-74
2021/01/20 08:29:11;;;;;;;17.67;10.85;;;;;;;7.26;75.74;99315.23;2862156;83;21150;-74
2021/01/20 08:33:20;;;;;;;11.00;7.95;;;;;;;7.37;75.41;99316.98;2859305;82;21186;-73
2021/01/20 08:37:38;;;;;;;12.65;11.25;;;;;;;7.49;75.10;99315.11;2859275;83;21172;-73
2021/01/20 08:41:41;;;;;;;20.77;11.63;;;;;;;7.63;74.78;99321.87;2859240;83;21577;-73
2021/01/20 08:45:44;;;;;;;17.12;10.30;;;;;;;7.69;74.21;99329.31;2859377;83;21162;-73
2021/01/20 08:49:53;;;;;;;20.95;12.25;;;;;;;7.71;73.72;99326.05;2859369;83;21161;-73
2021/01/20 08:54:01;;;;;;;18.15;11.50;;;;;;;7.81;73.73;99332.21;2859328;82;21166;-74
2021/01/20 08:58:34;;;;;;;16.52;9.13;;;;;;;7.90;73.43;99333.73;2856094;83;21160;-73
2021/01/20 09:02:38;;;;;;;16.57;9.83;;;;;;;7.91;73.26;99336.73;2859642;83;21162;-72
2021/01/20 09:06:43;;;;;;;15.45;9.30;;;;;;;7.88;72.96;99344.44;2857998;83;21087;-74
2021/01/20 09:10:46;;;;;;;13.35;7.72;;;;;;;7.84;72.99;99350.48;2859269;82;21182;-74
2021/01/20 09:14:49;;;;;;;16.52;9.03;;;;;;;7.83;73.23;99348.80;2859246;83;21170;-75
2021/01/20 09:18:52;;;;;;;10.30;7.50;;;;;;;7.85;72.96;99352.16;2859121;82;21564;-75
2021/01/20 09:22:55;;;;;;;8.68;7.28;;;;;;;7.85;73.01;99344.20;2859447;82;21569;-76
2021/01/20 09:26:58;;;;;;;9.08;7.00;;;;;;;7.89;72.93;99352.73;2859328;83;21403;-72
2021/01/20 09:31:01;;;;;;;10.85;6.80;;;;;;;7.92;72.75;99342.38;2859224;83;22240;-73
2021/01/20 09:35:11;;;;;;;8.28;6.70;;;;;;;7.95;72.35;99344.26;2859459;82;21162;-74
2021/01/20 09:39:14;;;;;;;8.70;7.62;;;;;;;8.06;72.46;99351.78;2859243;83;21182;-74
2021/01/20 09:43:21;;;;;;;12.05;6.72;;;;;;;8.13;72.24;99355.56;2859352;82;21158;-72
2021/01/20 09:47:23;;;;;;;;;;;;;;;8.24;72.31;99358.60;2861989;83;21170;-74
2021/01/20 09:51:29;;;;;;;8.28;6.17;;;;;;;8.42;71.92;99355.67;2857676;82;20521;-74
2021/01/20 09:55:33;;;;;;;9.73;6.97;;;;;;;8.49;71.35;99348.02;2842748;83;21182;-71
2021/01/20 09:59:37;;;;;;;7.50;4.58;;;;;;;8.61;70.92;99343.47;2842474;83;21661;-73
2021/01/20 10:03:40;;;;;;;9.10;4.40;;;;;;;8.78;70.62;99351.73;2842506;83;21159;-72
2021/01/20 10:07:43;;;;;;;6.67;5.75;;;;;;;9.00;70.15;99347.50;2842864;83;21170;-72
2021/01/20 10:11:49;;;;;;;9.55;6.90;;;;;;;9.26;69.60;99348.30;2842692;83;21154;-72
2021/01/20 10:15:50;;;;;;;11.08;6.42;;;;;;;9.52;69.60;99349.03;2842947;83;21138;-72
2021/01/20 10:19:54;;;;;;;16.62;9.83;;;;;;;9.82;68.78;99356.42;2840759;83;21242;-72
2021/01/20 10:23:56;;;;;;;7.78;4.67;;;;;;;10.02;68.39;99349.72;2838984;83;21135;-71
2021/01/20 10:28:00;;;;;;;10.45;6.55;;;;;;;10.10;67.46;99339.70;2838745;83;21154;-74
2021/01/20 10:32:05;;;;;;;14.93;7.92;;;;;;;10.08;66.84;99332.38;2905786;81;21156;-72
2021/01/20 10:36:08;;;;;;;11.03;6.45;;;;;;;10.09;66.93;99331.38;2917901;80;21149;-73
2021/01/20 10:40:12;;;;;;;9.73;6.30;;;;;;;10.10;66.73;99333.91;2864886;83;21141;-71
2021/01/20 10:44:15;;;;;;;5.95;4.08;;;;;;;10.20;66.22;99333.02;2917476;80;21141;-76
2021/01/20 10:48:18;;;;;;;7.08;5.12;;;;;;;10.23;65.68;99328.77;2872050;82;21145;-71
2021/01/20 10:52:21;;;;;;;6.10;4.87;;;;;;;10.23;65.41;99326.92;2943462;80;21431;-68
2021/01/20 10:56:24;;;;;;;16.23;12.20;;;;;;;10.27;65.87;99328.30;2911977;81;21156;-68
2021/01/20 11:00:27;;;;;;;18.87;14.15;;;;;;;10.30;65.56;99321.86;2943683;80;21415;-69
2021/01/20 11:04:30;;;;;;;18.55;11.53;;;;;;;10.31;65.41;99314.23;2944057;80;21142;-67
2021/01/20 11:08:33;;;;;;;11.95;10.58;;;;;;;10.36;65.97;99315.13;2912794;81;22226;-69
2021/01/20 11:12:36;;;;;;;12.65;7.90;;;;;;;10.41;65.42;99304.91;2921303;80;21184;-69
2021/01/20 11:16:40;;;;;;;7.92;5.70;;;;;;;10.41;65.00;99307.05;2911786;81;21153;-69
2021/01/20 11:20:48;;;;;;;5.28;4.17;;;;;;;10.39;65.15;99301.02;2852835;83;21563;-69
2021/01/20 11:25:00;;;;;;;5.08;4.53;;;;;;;10.41;65.40;99298.26;2911442;81;21156;-68
2021/01/20 11:28:56;;;;;;;7.37;3.77;;;;;;;10.38;65.31;99295.88;2922014;80;21110;-68
2021/01/20 11:32:59;;;;;;;4.30;3.55;;;;;;;10.39;65.51;99298.88;2941991;80;21133;-68
2021/01/20 11:37:02;;;;;;;4.47;3.52;;;;;;;10.38;65.48;99278.59;2901868;81;21161;-69
2021/01/20 11:41:05;;;;;;;7.12;3.08;;;;;;;10.37;65.75;99283.56;2907761;81;21634;-69
2021/01/20 11:45:09;;;;;;;4.10;2.83;;;;;;;10.41;66.15;99280.47;2908232;81;21100;-68
2021/01/20 11:49:12;;;;;;;4.58;2.47;;;;;;;10.50;66.93;99278.73;2939781;80;21148;-69
2021/01/20 11:53:15;;;;;;;5.30;3.72;;;;;;;10.62;65.59;99269.22;2965352;80;21135;-68
2021/01/20 11:57:18;;;;;;;7.83;4.72;;;;;;;10.62;64.77;99266.56;2922605;81;21109;-69
2021/01/20 12:01:22;;;;;;;5.80;3.67;;;;;;;10.54;64.58;99260.19;2918889;81;21151;-67
2021/01/20 12:05:26;;;;;;;4.58;3.27;;;;;;;10.49;64.88;99258.96;2977404;80;21148;-68
2021/01/20 12:09:29;;;;;;;5.37;4.08;;;;;;;10.41;64.73;99253.88;2922968;81;21169;-69
2021/01/20 12:13:34;;;;;;;2.95;2.35;;;;;;;10.29;65.07;99255.06;2918664;81;21583;-69
2021/01/20 12:17:37;;;;;;;10.40;5.80;;;;;;;10.18;65.90;99249.95;2918205;81;21164;-68
2021/01/20 12:21:40;;;;;;;12.10;7.40;;;;;;;10.12;65.58;99249.56;2898648;81;21157;-70
2021/01/20 12:25:44;;;;;;;8.08;4.50;;;;;;;10.06;65.38;99240.87;2960297;80;21116;-68
2021/01/20 12:29:47;;;;;;;7.87;6.12;;;;;;;9.96;65.31;99238.27;2934567;81;21462;-68
2021/01/20 12:33:51;;;;;;;9.00;7.08;;;;;;;9.88;65.58;99244.78;2959514;80;21144;-68
2021/01/20 12:37:54;;;;;;;8.13;5.72;;;;;;;9.84;65.66;99246.06;2959877;80;21128;-69
2021/01/20 12:41:57;;;;;;;6.97;5.05;;;;;;;9.77;65.98;99233.04;2934939;81;21161;-69
2021/01/20 12:46:00;;;;;;;8.53;4.90;;;;;;;9.76;66.45;99232.19;2959642;80;21148;-69
2021/01/20 12:50:04;;;;;;;8.45;5.85;;;;;;;9.79;66.37;99226.58;2960166;80;21141;-67
2021/01/20 12:54:08;;;;;;;6.42;5.28;;;;;;;9.81;66.34;99231.25;2934379;81;21172;-69
2021/01/20 12:58:11;;;;;;;11.12;5.20;;;;;;;9.86;66.55;99229.02;2959881;80;21136;-67
2021/01/20 13:02:13;;;;;;;8.13;4.50;;;;;;;9.92;66.68;99230.72;2960229;80;21180;-64
2021/01/20 13:06:16;;;;;;;5.10;4.58;;;;;;;10.00;66.90;99226.83;2934609;81;21113;-64
2021/01/20 13:10:19;;;;;;;6.47;4.47;;;;;;;10.05;67.04;99229.05;2959991;80;21136;-67
2021/01/20 13:14:24;;;;;;;5.85;5.30;;;;;;;10.06;66.82;99232.90;2960131;80;21180;-66
2021/01/20 13:18:27;;;;;;;6.55;4.33;;;;;;;10.01;66.11;99225.84;2934790;81;21101;-65
2021/01/20 13:22:30;;;;;;;6.87;4.50;;;;;;;9.89;65.82;99231.84;2960042;80;21141;-65
2021/01/20 13:26:34;;;;;;;5.78;3.62;;;;;;;9.67;65.82;99239.72;2960094;80;21148;-63
2021/01/20 13:30:39;;;;;;;6.15;5.55;;;;;;;9.50;65.94;99238.64;2934769;80;21185;-65
2021/01/20 13:34:42;;;;;;;10.60;5.25;;;;;;;9.35;65.92;99236.95;2960033;80;21129;-66
2021/01/20 13:38:47;;;;;;;13.48;9.05;;;;;;;9.17;66.34;99233.70;2958451;80;21180;-64
2021/01/20 13:42:50;;;;;;;8.43;4.12;;;;;;;8.99;66.70;99229.12;2934384;81;21106;-65
2021/01/20 13:46:53;;;;;;;7.70;4.92;;;;;;;8.93;67.04;99250.91;2960226;80;21140;-65
2021/01/20 13:50:56;;;;;;;7.65;4.70;;;;;;;8.89;67.01;99257.95;2959495;80;21117;-65
2021/01/20 13:54:59;;;;;;;8.68;4.67;;;;;;;8.83;67.08;99258.02;2934709;81;21141;-65
2021/01/20 13:59:02;;;;;;;24.52;14.73;;;;;;;8.79;66.85;99255.30;2959845;80;21148;-64
2021/01/20 14:03:05;;;;;;;14.23;7.70;;;;;;;8.76;67.11;99263.55;2960555;80;21125;-67
2021/01/20 14:07:14;;;;;;;5.12;4.62;;;;;;;8.68;66.95;99262.44;2960405;80;21137;-66
2021/01/20 14:11:16;;;;;;;8.00;6.10;;;;;;;8.63;67.03;99262.49;2960353;80;21113;-68
2021/01/20 14:15:20;;;;;;;12.93;8.60;;;;;;;8.54;67.23;99270.28;2960389;80;21148;-67
2021/01/20 14:19:22;;;;;;;11.68;7.53;;;;;;;8.47;67.42;99278.91;2960348;80;21128;-65
2021/01/20 14:23:25;;;;;;;10.23;7.37;;;;;;;8.41;67.60;99277.64;2960087;80;21642;-67
2021/01/20 14:27:33;;;;;;;11.08;8.73;;;;;;;8.31;67.94;99269.67;2960579;80;21081;-65
2021/01/20 14:31:34;;;;;;;17.87;13.00;;;;;;;8.21;68.03;99265.68;2960079;80;21128;-67
2021/01/20 14:35:39;;;;;;;16.82;10.05;;;;;;;8.12;68.24;99263.35;2967306;79;21156;-68
2021/01/20 14:39:41;;;;;;;9.83;6.05;;;;;;;8.05;68.36;99268.82;2916867;80;21168;-66
2021/01/20 14:43:46;;;;;;;15.15;7.28;;;;;;;8.00;68.44;99259.13;2941343;80;21114;-67
2021/01/20 14:47:49;;;;;;;10.43;6.97;;;;;;;7.97;68.36;99260.72;2945226;80;22138;-67
2021/01/20 14:51:52;;;;;;;11.73;8.30;;;;;;;7.96;68.39;99259.05;2945702;80;21137;-68
2021/01/20 14:55:55;;;;;;;16.95;12.78;;;;;;;7.97;68.27;99263.37;2945530;80;21153;-66
2021/01/20 14:59:58;;;;;;;32.10;19.80;;;;;;;7.96;68.31;99271.81;2945377;80;22257;-67
2021/01/20 15:04:01;;;;;;;18.45;13.32;;;;;;;7.97;68.27;99268.20;2945451;80;21173;-70
2021/01/20 15:08:05;;;;;;;16.17;9.50;;;;;;;7.97;67.85;99268.66;2945667;80;21089;-67
2021/01/20 15:12:08;;;;;;;17.42;11.60;;;;;;;7.97;67.87;99260.72;2945515;80;21145;-69
2021/01/20 15:16:11;;;;;;;20.35;10.85;;;;;;;7.95;67.70;99253.40;2944498;80;21141;-68
2021/01/20 15:20:15;;;;;;;18.95;10.95;;;;;;;7.91;67.63;99255.97;2945590;80;21153;-67
2021/01/20 15:24:18;;;;;;;18.92;12.07;;;;;;;7.90;67.64;99260.91;2945374;80;21121;-67
2021/01/20 15:28:21;;;;;;;27.95;16.45;;;;;;;7.88;67.38;99258.89;2945541;80;21587;-67
2021/01/20 15:32:24;;;;;;;29.92;20.35;;;;;;;7.87;67.31;99262.01;2948173;80;21543;-68
2021/01/20 15:36:27;;;;;;;28.55;16.32;;;;;;;7.83;66.99;99258.78;2945657;80;21129;-67
2021/01/20 15:40:30;;;;;;;19.62;13.25;;;;;;;7.78;67.13;99270.27;2945352;80;22386;-66
2021/01/20 15:44:33;;;;;;;15.50;11.33;;;;;;;7.72;67.03;99264.19;2945166;80;21133;-67
2021/01/20 15:48:36;;;;;;;33.48;23.85;;;;;;;7.71;67.06;99264.66;2945422;80;21135;-68
2021/01/20 15:52:39;;;;;;;21.17;11.65;;;;;;;7.67;67.08;99262.43;2927238;80;21144;-68
2021/01/20 15:56:44;;;;;;;19.10;15.13;;;;;;;7.59;67.17;99259.11;2913115;81;21470;-69
2021/01/20 16:00:47;;;;;;;21.80;14.90;;;;;;;7.58;67.18;99259.59;2913129;81;21167;-69
2021/01/20 16:04:51;;;;;;;15.50;11.90;;;;;;;7.57;67.06;99262.37;2912999;81;21160;-69
2021/01/20 16:08:56;;;;;;;25.35;13.75;;;;;;;7.60;66.98;99265.23;2913075;81;21141;-67
2021/01/20 16:13:03;;;;;;;28.20;17.73;;;;;;;7.62;66.89;99265.94;2913081;81;21594;-65
2021/01/20 16:17:09;;;;;;;22.58;15.00;;;;;;;7.57;66.90;99273.79;2912945;81;21089;-67
2021/01/20 16:21:12;;;;;;;15.50;9.58;;;;;;;7.53;66.83;99271.53;2913442;80;21145;-69
2021/01/20 16:25:15;;;;;;;12.78;8.53;;;;;;;7.52;66.87;99268.06;2913707;80;21155;-69
2021/01/20 16:29:19;;;;;;;9.15;6.47;;;;;;;7.55;66.95;99274.88;2913204;80;21111;-68
2021/01/20 16:33:22;;;;;;;8.30;6.20;;;;;;;7.54;67.02;99271.88;2857029;83;21147;-67
2021/01/20 16:37:26;;;;;;;11.38;6.25;;;;;;;7.51;67.11;99271.67;2908467;81;21665;-68
2021/01/20 16:41:29;;;;;;;8.13;6.47;;;;;;;7.47;67.21;99277.35;2908460;81;21148;-67
2021/01/20 16:45:32;;;;;;;10.88;5.90;;;;;;;7.41;67.26;99277.39;2855860;83;21151;-67
2021/01/20 16:49:35;;;;;;;11.38;5.28;;;;;;;7.35;67.62;99271.30;2908282;81;21112;-71
2021/01/20 16:53:40;;;;;;;7.83;6.05;;;;;;;7.34;67.97;99263.83;2856047;83;21160;-69
2021/01/20 16:57:43;;;;;;;10.30;6.28;;;;;;;7.38;68.13;99258.66;2908272;81;21140;-67
2021/01/20 17:01:46;;;;;;;5.70;5.10;;;;;;;7.37;68.44;99262.27;2855804;83;21460;-67
2021/01/20 17:05:49;;;;;;;5.80;3.95;;;;;;;7.35;68.64;99262.05;2908016;81;21192;-70
2021/01/20 17:09:52;;;;;;;7.85;6.05;;;;;;;7.36;68.89;99257.10;2908311;81;21148;-64
2021/01/20 17:13:56;;;;;;;8.53;6.72;;;;;;;7.36;69.02;99263.22;2856055;83;21483;-68
2021/01/20 17:17:58;;;;;;;9.65;6.75;;;;;;;7.32;69.18;99264.45;2908178;81;21140;-65
2021/01/20 17:22:03;;;;;;;7.83;5.70;;;;;;;7.26;69.36;99254.40;2828124;83;21614;-67
2021/01/20 17:26:06;;;;;;;10.05;6.62;;;;;;;7.24;69.62;99253.69;2908004;81;21986;-66
2021/01/20 17:30:11;;;;;;;12.45;8.80;;;;;;;7.22;69.70;99247.70;2855875;83;21594;-65
2021/01/20 17:34:13;;;;;;;8.23;6.67;;;;;;;7.23;69.85;99252.02;2918375;79;21171;-69
2021/01/20 17:38:16;;;;;;;14.73;9.08;;;;;;;7.24;69.79;99247.91;2999023;79;21141;-67
2021/01/20 17:42:24;;;;;;;12.47;9.80;;;;;;;7.22;69.98;99235.30;2996601;79;21600;-68
2021/01/20 17:46:27;;;;;;;14.15;9.15;;;;;;;7.25;70.05;99220.98;2993706;79;21162;-68
2021/01/20 17:50:30;;;;;;;14.38;9.60;;;;;;;7.28;69.99;99212.31;2935732;80;21145;-66
2021/01/20 17:54:33;;;;;;;17.25;10.50;;;;;;;7.34;70.05;99203.48;2921933;80;21165;-68
2021/01/20 17:58:37;;;;;;;12.93;8.95;;;;;;;7.40;70.05;99217.03;2860296;82;21179;-68
2021/01/20 18:02:40;;;;;;;17.37;11.75;;;;;;;7.50;69.92;99213.11;2860631;83;21165;-68
2021/01/20 18:06:46;;;;;;;16.05;9.65;;;;;;;7.62;69.78;99213.00;2908306;80;21173;-68
2021/01/20 18:10:49;;;;;;;16.95;9.33;;;;;;;7.72;69.37;99205.95;2880171;81;21189;-70
2021/01/20 18:14:52;;;;;;;14.60;10.45;;;;;;;7.89;68.87;99208.43;2867711;81;21170;-68
2021/01/20 18:18:56;;;;;;;15.48;11.20;;;;;;;7.96;68.46;99202.96;2867332;82;21178;-69
2021/01/20 18:23:00;;;;;;;12.15;8.83;;;;;;;8.01;68.00;99202.53;2886744;80;21592;-67
2021/01/20 18:27:04;;;;;;;15.20;10.35;;;;;;;8.03;67.63;99201.91;2920752;80;21133;-67
2021/01/20 18:31:08;;;;;;;18.12;10.50;;;;;;;8.10;67.57;99198.23;2918762;80;21595;-69
2021/01/20 18:35:12;;;;;;;12.68;9.45;;;;;;;8.14;67.33;99200.95;2933753;80;21181;-68
2021/01/20 18:39:16;;;;;;;15.53;9.45;;;;;;;8.14;67.21;99193.00;2953800;80;21141;-67
2021/01/20 18:43:20;;;;;;;12.25;9.55;;;;;;;8.11;67.19;99194.13;2954282;80;21176;-68
2021/01/20 18:47:25;;;;;;;11.85;9.93;;;;;;;8.08;67.04;99190.44;2954179;80;21125;-68
2021/01/20 18:51:28;;;;;;;14.55;9.38;;;;;;;8.00;67.13;99195.56;2877076;80;21150;-67
2021/01/20 18:55:34;;;;;;;12.68;8.83;;;;;;;7.91;67.25;99185.80;2867226;83;21223;-68
2021/01/20 18:59:37;;;;;;;10.70;7.00;;;;;;;7.82;67.31;99184.80;2867451;83;21210;-69
2021/01/20 19:03:41;;;;;;;11.60;8.20;;;;;;;7.77;67.36;99189.17;2918415;80;21482;-68
2021/01/20 19:07:45;;;;;;;15.50;7.45;;;;;;;7.68;67.53;99183.38;2908984;81;21105;-69
2021/01/20 19:11:48;;;;;;;18.65;10.60;;;;;;;7.66;67.47;99182.17;2908501;81;21129;-69
2021/01/20 19:15:51;;;;;;;15.80;11.05;;;;;;;7.60;67.55;99171.27;2908411;81;21156;-69
2021/01/20 19:19:54;;;;;;;12.65;7.12;;;;;;;7.54;67.57;99166.88;2908312;81;21148;-69